sensor_id;sensor_type;location;lat;lon;timestamp;temperature;humidity
6958;DHT22;50346;51.268;15.942;2022-09-09T00:04:23;15.80;49.90
6958;DHT22;50346;51.268;15.942;2022-09-09T00:06:55;15.80;50.20
6958;DHT22;50346;51.268;15.942;2022-09-09T00:09:25;15.80;51.10
6958;DHT22;50346;51.268;15.942;2022-09-09T00:11:56;15.80;51.30
6958;DHT22;50346;51.268;15.942;2022-09-09T00:14:34;15.70;50.80
6958;DHT22;50346;51.268;15.942;2022-09-09T00:17:09;15.70;49.80
6958;DHT22;50346;51.268;15.942;2022-09-09T00:19:49;15.70;50.30
6958;DHT22;50346;51.268;15.942;2022-09-09T00:22:23;15.70;51.00
6958;DHT22;50346;51.268;15.942;2022-09-09T00:24:53;15.70;51.60
6958;DHT22;50346;51.268;15.942;2022-09-09T00:27:21;15.70;52.20
6958;DHT22;50346;51.268;15.942;2022-09-09T00:32:34;15.70;51.90
6958;DHT22;50346;51.268;15.942;2022-09-09T00:35:18;15.70;51.30
6958;DHT22;50346;51.268;15.942;2022-09-09T00:37:49;15.70;51.00
6958;DHT22;50346;51.268;15.942;2022-09-09T00:40:41;15.70;50.70
6958;DHT22;50346;51.268;15.942;2022-09-09T00:43:29;15.70;49.60
6958;DHT22;50346;51.268;15.942;2022-09-09T00:49:23;15.60;49.10
6958;DHT22;50346;51.268;15.942;2022-09-09T00:52:06;15.60;48.80
6958;DHT22;50346;51.268;15.942;2022-09-09T00:55:04;15.60;48.90
6958;DHT22;50346;51.268;15.942;2022-09-09T00:57:32;15.60;47.90
6958;DHT22;50346;51.268;15.942;2022-09-09T01:00:26;15.60;47.70
6958;DHT22;50346;51.268;15.942;2022-09-09T01:03:17;15.50;47.80
6958;DHT22;50346;51.268;15.942;2022-09-09T01:06:49;15.50;47.50
6958;DHT22;50346;51.268;15.942;2022-09-09T01:09:10;15.50;46.90
6958;DHT22;50346;51.268;15.942;2022-09-09T01:17:19;15.40;45.20
6958;DHT22;50346;51.268;15.942;2022-09-09T01:27:34;15.30;47.20
6958;DHT22;50346;51.268;15.942;2022-09-09T01:30:04;15.90;68.20
6958;DHT22;50346;51.268;15.942;2022-09-09T01:32:42;15.20;62.70
6958;DHT22;50346;51.268;15.942;2022-09-09T01:37:36;15.00;55.00
6958;DHT22;50346;51.268;15.942;2022-09-09T01:42:27;15.00;58.20
6958;DHT22;50346;51.268;15.942;2022-09-09T01:44:53;14.90;66.90
6958;DHT22;50346;51.268;15.942;2022-09-09T01:47:19;15.00;70.40
6958;DHT22;50346;51.268;15.942;2022-09-09T01:49:45;14.90;67.00
6958;DHT22;50346;51.268;15.942;2022-09-09T01:54:37;14.90;61.60
6958;DHT22;50346;51.268;15.942;2022-09-09T01:57:25;14.90;61.80
6958;DHT22;50346;51.268;15.942;2022-09-09T02:00:05;14.90;59.90
6958;DHT22;50346;51.268;15.942;2022-09-09T02:08:08;14.80;54.30
6958;DHT22;50346;51.268;15.942;2022-09-09T02:13:17;14.70;52.20
6958;DHT22;50346;51.268;15.942;2022-09-09T02:15:55;14.70;53.40
6958;DHT22;50346;51.268;15.942;2022-09-09T02:18:28;14.70;55.50
6958;DHT22;50346;51.268;15.942;2022-09-09T02:20:56;14.60;56.10
6958;DHT22;50346;51.268;15.942;2022-09-09T02:23:24;14.60;56.10
6958;DHT22;50346;51.268;15.942;2022-09-09T02:25:51;14.50;56.00
6958;DHT22;50346;51.268;15.942;2022-09-09T02:28:20;14.50;56.00
6958;DHT22;50346;51.268;15.942;2022-09-09T02:30:48;14.50;56.00
6958;DHT22;50346;51.268;15.942;2022-09-09T02:33:27;14.50;56.00
6958;DHT22;50346;51.268;15.942;2022-09-09T02:35:54;14.50;56.00
6958;DHT22;50346;51.268;15.942;2022-09-09T02:38:26;14.40;55.90
6958;DHT22;50346;51.268;15.942;2022-09-09T02:40:54;14.50;56.00
6958;DHT22;50346;51.268;15.942;2022-09-09T02:43:19;14.40;56.50
6958;DHT22;50346;51.268;15.942;2022-09-09T02:46:17;14.40;56.00
6958;DHT22;50346;51.268;15.942;2022-09-09T02:51:25;14.30;56.70
6958;DHT22;50346;51.268;15.942;2022-09-09T02:56:30;14.20;58.30
6958;DHT22;50346;51.268;15.942;2022-09-09T02:58:59;14.20;59.70
6958;DHT22;50346;51.268;15.942;2022-09-09T03:01:25;14.20;60.50
6958;DHT22;50346;51.268;15.942;2022-09-09T03:03:50;14.10;62.20
6958;DHT22;50346;51.268;15.942;2022-09-09T03:06:16;14.10;61.40
6958;DHT22;50346;51.268;15.942;2022-09-09T03:08:41;14.00;62.80
6958;DHT22;50346;51.268;15.942;2022-09-09T03:11:07;14.00;62.40
6958;DHT22;50346;51.268;15.942;2022-09-09T03:13:34;14.00;62.20
6958;DHT22;50346;51.268;15.942;2022-09-09T03:16:00;13.90;61.50
6958;DHT22;50346;51.268;15.942;2022-09-09T03:18:25;13.90;63.00
6958;DHT22;50346;51.268;15.942;2022-09-09T03:20:52;13.90;62.00
6958;DHT22;50346;51.268;15.942;2022-09-09T03:23:19;13.90;61.00
6958;DHT22;50346;51.268;15.942;2022-09-09T03:25:48;13.90;61.70
6958;DHT22;50346;51.268;15.942;2022-09-09T03:28:14;13.90;61.80
6958;DHT22;50346;51.268;15.942;2022-09-09T03:30:40;13.90;62.00
6958;DHT22;50346;51.268;15.942;2022-09-09T03:33:06;13.90;62.50
6958;DHT22;50346;51.268;15.942;2022-09-09T03:35:31;13.90;62.20
6958;DHT22;50346;51.268;15.942;2022-09-09T03:37:57;13.90;60.90
6958;DHT22;50346;51.268;15.942;2022-09-09T03:40:22;13.90;59.20
6958;DHT22;50346;51.268;15.942;2022-09-09T03:42:48;13.90;58.10
6958;DHT22;50346;51.268;15.942;2022-09-09T03:45:14;13.90;55.80
6958;DHT22;50346;51.268;15.942;2022-09-09T03:47:40;13.90;54.70
6958;DHT22;50346;51.268;15.942;2022-09-09T03:50:07;13.90;52.60
6958;DHT22;50346;51.268;15.942;2022-09-09T03:52:39;13.90;51.40
6958;DHT22;50346;51.268;15.942;2022-09-09T03:55:06;13.80;51.00
6958;DHT22;50346;51.268;15.942;2022-09-09T03:57:33;13.90;49.80
6958;DHT22;50346;51.268;15.942;2022-09-09T04:00:04;13.90;49.50
6958;DHT22;50346;51.268;15.942;2022-09-09T04:02:30;13.80;48.70
6958;DHT22;50346;51.268;15.942;2022-09-09T04:04:56;13.90;48.30
6958;DHT22;50346;51.268;15.942;2022-09-09T04:07:21;13.90;48.00
6958;DHT22;50346;51.268;15.942;2022-09-09T04:09:47;13.90;47.00
6958;DHT22;50346;51.268;15.942;2022-09-09T04:12:13;13.90;46.60
6958;DHT22;50346;51.268;15.942;2022-09-09T04:14:39;13.80;47.00
6958;DHT22;50346;51.268;15.942;2022-09-09T04:17:04;13.80;48.60
6958;DHT22;50346;51.268;15.942;2022-09-09T04:19:32;13.80;49.00
6958;DHT22;50346;51.268;15.942;2022-09-09T04:21:57;13.80;48.10
6958;DHT22;50346;51.268;15.942;2022-09-09T04:24:23;13.80;46.90
6958;DHT22;50346;51.268;15.942;2022-09-09T04:26:49;13.80;45.50
6958;DHT22;50346;51.268;15.942;2022-09-09T04:29:15;13.80;44.70
6958;DHT22;50346;51.268;15.942;2022-09-09T04:31:40;13.80;43.60
6958;DHT22;50346;51.268;15.942;2022-09-09T04:34:08;13.80;44.20
6958;DHT22;50346;51.268;15.942;2022-09-09T04:36:34;13.80;46.20
6958;DHT22;50346;51.268;15.942;2022-09-09T04:39:00;13.80;48.50
6958;DHT22;50346;51.268;15.942;2022-09-09T04:41:27;13.80;49.70
6958;DHT22;50346;51.268;15.942;2022-09-09T04:43:52;13.80;50.20
6958;DHT22;50346;51.268;15.942;2022-09-09T04:46:19;13.80;49.70
6958;DHT22;50346;51.268;15.942;2022-09-09T04:48:45;13.80;48.60
6958;DHT22;50346;51.268;15.942;2022-09-09T04:51:12;13.90;48.30
6958;DHT22;50346;51.268;15.942;2022-09-09T04:53:39;13.90;47.50
6958;DHT22;50346;51.268;15.942;2022-09-09T04:58:39;14.00;47.60
6958;DHT22;50346;51.268;15.942;2022-09-09T05:01:11;14.00;46.00
6958;DHT22;50346;51.268;15.942;2022-09-09T05:03:37;14.00;45.10
6958;DHT22;50346;51.268;15.942;2022-09-09T05:06:14;14.10;43.70
6958;DHT22;50346;51.268;15.942;2022-09-09T05:08:42;14.10;41.70
6958;DHT22;50346;51.268;15.942;2022-09-09T05:11:19;14.20;39.00
6958;DHT22;50346;51.268;15.942;2022-09-09T05:13:46;14.20;35.40
6958;DHT22;50346;51.268;15.942;2022-09-09T05:16:12;14.30;31.50
6958;DHT22;50346;51.268;15.942;2022-09-09T05:18:39;14.30;29.80
6958;DHT22;50346;51.268;15.942;2022-09-09T05:21:05;14.40;27.70
6958;DHT22;50346;51.268;15.942;2022-09-09T05:23:32;14.40;26.00
6958;DHT22;50346;51.268;15.942;2022-09-09T05:25:59;14.50;24.90
6958;DHT22;50346;51.268;15.942;2022-09-09T05:28:26;14.60;24.00
6958;DHT22;50346;51.268;15.942;2022-09-09T05:30:59;14.60;24.90
6958;DHT22;50346;51.268;15.942;2022-09-09T05:33:26;14.70;26.20
6958;DHT22;50346;51.268;15.942;2022-09-09T05:36:04;14.70;26.10
6958;DHT22;50346;51.268;15.942;2022-09-09T05:38:31;14.80;27.00
6958;DHT22;50346;51.268;15.942;2022-09-09T05:40:59;14.80;28.60
6958;DHT22;50346;51.268;15.942;2022-09-09T05:43:25;14.90;30.70
6958;DHT22;50346;51.268;15.942;2022-09-09T05:46:03;14.90;32.70
6958;DHT22;50346;51.268;15.942;2022-09-09T05:48:35;15.00;36.80
6958;DHT22;50346;51.268;15.942;2022-09-09T05:51:03;15.10;39.10
6958;DHT22;50346;51.268;15.942;2022-09-09T05:53:30;15.20;38.30
6958;DHT22;50346;51.268;15.942;2022-09-09T05:56:08;15.20;36.90
6958;DHT22;50346;51.268;15.942;2022-09-09T05:58:36;15.40;36.10
6958;DHT22;50346;51.268;15.942;2022-09-09T06:06:12;15.60;30.80
6958;DHT22;50346;51.268;15.942;2022-09-09T06:08:39;15.70;29.30
6958;DHT22;50346;51.268;15.942;2022-09-09T06:11:22;15.90;25.50
6958;DHT22;50346;51.268;15.942;2022-09-09T06:13:49;16.00;15.40
6958;DHT22;50346;51.268;15.942;2022-09-09T06:16:18;16.00;14.70
6958;DHT22;50346;51.268;15.942;2022-09-09T06:18:44;16.10;11.30
6958;DHT22;50346;51.268;15.942;2022-09-09T06:21:15;16.20;7.70
6958;DHT22;50346;51.268;15.942;2022-09-09T06:23:42;16.20;1.00
6958;DHT22;50346;51.268;15.942;2022-09-09T06:26:14;16.30;1.00
6958;DHT22;50346;51.268;15.942;2022-09-09T06:28:41;16.40;1.00
6958;DHT22;50346;51.268;15.942;2022-09-09T06:31:12;16.40;1.00
6958;DHT22;50346;51.268;15.942;2022-09-09T06:36:09;16.60;1.00
6958;DHT22;50346;51.268;15.942;2022-09-09T06:38:36;16.70;1.00
6958;DHT22;50346;51.268;15.942;2022-09-09T06:41:01;16.80;1.00
6958;DHT22;50346;51.268;15.942;2022-09-09T06:43:28;16.90;1.00
6958;DHT22;50346;51.268;15.942;2022-09-09T06:45:58;17.10;1.00
6958;DHT22;50346;51.268;15.942;2022-09-09T06:48:24;17.10;1.00
6958;DHT22;50346;51.268;15.942;2022-09-09T06:51:08;17.20;1.00
6958;DHT22;50346;51.268;15.942;2022-09-09T06:53:35;17.30;1.00
6958;DHT22;50346;51.268;15.942;2022-09-09T06:58:28;17.40;1.00
6958;DHT22;50346;51.268;15.942;2022-09-09T07:01:04;17.50;1.00
6958;DHT22;50346;51.268;15.942;2022-09-09T07:03:31;17.50;1.00
6958;DHT22;50346;51.268;15.942;2022-09-09T07:05:57;17.60;1.00
6958;DHT22;50346;51.268;15.942;2022-09-09T07:08:23;17.60;1.00
6958;DHT22;50346;51.268;15.942;2022-09-09T07:10:51;17.70;1.00
6958;DHT22;50346;51.268;15.942;2022-09-09T07:13:25;17.70;1.00
6958;DHT22;50346;51.268;15.942;2022-09-09T07:15:52;17.80;1.00
6958;DHT22;50346;51.268;15.942;2022-09-09T07:18:18;17.90;1.00
6958;DHT22;50346;51.268;15.942;2022-09-09T07:20:53;17.90;1.00
6958;DHT22;50346;51.268;15.942;2022-09-09T07:23:19;18.00;1.00
6958;DHT22;50346;51.268;15.942;2022-09-09T07:25:45;18.10;1.00
6958;DHT22;50346;51.268;15.942;2022-09-09T07:28:11;18.10;1.00
6958;DHT22;50346;51.268;15.942;2022-09-09T07:30:36;18.20;99.90
6958;DHT22;50346;51.268;15.942;2022-09-09T07:33:02;18.30;99.90
6958;DHT22;50346;51.268;15.942;2022-09-09T07:35:28;18.30;99.90
6958;DHT22;50346;51.268;15.942;2022-09-09T07:37:54;18.40;99.90
6958;DHT22;50346;51.268;15.942;2022-09-09T07:40:20;18.40;99.50
6958;DHT22;50346;51.268;15.942;2022-09-09T07:42:47;18.50;58.00
6958;DHT22;50346;51.268;15.942;2022-09-09T07:47:40;18.50;1.00
6958;DHT22;50346;51.268;15.942;2022-09-09T07:50:09;18.60;5.60
6958;DHT22;50346;51.268;15.942;2022-09-09T07:52:35;18.60;47.40
6958;DHT22;50346;51.268;15.942;2022-09-09T07:55:01;18.70;99.90
6958;DHT22;50346;51.268;15.942;2022-09-09T07:57:30;18.60;99.90
6958;DHT22;50346;51.268;15.942;2022-09-09T07:59:56;18.70;99.90
6958;DHT22;50346;51.268;15.942;2022-09-09T08:02:25;18.70;99.90
6958;DHT22;50346;51.268;15.942;2022-09-09T08:04:53;18.70;99.90
6958;DHT22;50346;51.268;15.942;2022-09-09T08:07:18;18.70;99.90
6958;DHT22;50346;51.268;15.942;2022-09-09T08:09:45;18.70;99.90
6958;DHT22;50346;51.268;15.942;2022-09-09T08:12:11;18.80;99.90
6958;DHT22;50346;51.268;15.942;2022-09-09T08:14:38;18.80;99.90
6958;DHT22;50346;51.268;15.942;2022-09-09T08:17:05;18.80;99.90
6958;DHT22;50346;51.268;15.942;2022-09-09T08:19:31;18.90;47.80
6958;DHT22;50346;51.268;15.942;2022-09-09T08:21:59;18.90;1.00
6958;DHT22;50346;51.268;15.942;2022-09-09T08:24:27;19.00;1.00
6958;DHT22;50346;51.268;15.942;2022-09-09T08:26:53;19.10;99.90
6958;DHT22;50346;51.268;15.942;2022-09-09T08:29:19;19.10;64.10
6958;DHT22;50346;51.268;15.942;2022-09-09T08:31:50;19.20;1.00
6958;DHT22;50346;51.268;15.942;2022-09-09T08:34:17;19.30;99.90
6958;DHT22;50346;51.268;15.942;2022-09-09T08:36:46;19.40;99.90
6958;DHT22;50346;51.268;15.942;2022-09-09T08:39:14;19.40;99.90
6958;DHT22;50346;51.268;15.942;2022-09-09T08:50:27;19.90;1.00
6958;DHT22;50346;51.268;15.942;2022-09-09T08:58:30;20.10;65.30
6958;DHT22;50346;51.268;15.942;2022-09-09T09:11:38;20.20;13.10
6958;DHT22;50346;51.268;15.942;2022-09-09T09:14:20;20.20;35.20
6958;DHT22;50346;51.268;15.942;2022-09-09T09:16:58;20.20;99.90
6958;DHT22;50346;51.268;15.942;2022-09-09T09:19:25;20.20;99.90
6958;DHT22;50346;51.268;15.942;2022-09-09T09:24:30;20.30;99.90
6958;DHT22;50346;51.268;15.942;2022-09-09T09:27:12;20.40;1.00
6958;DHT22;50346;51.268;15.942;2022-09-09T09:29:38;20.50;1.00
6958;DHT22;50346;51.268;15.942;2022-09-09T09:32:07;20.50;1.00
6958;DHT22;50346;51.268;15.942;2022-09-09T09:34:37;20.60;1.00
6958;DHT22;50346;51.268;15.942;2022-09-09T09:37:15;20.70;1.00
6958;DHT22;50346;51.268;15.942;2022-09-09T09:39:44;20.80;99.90
6958;DHT22;50346;51.268;15.942;2022-09-09T09:42:12;20.80;99.90
6958;DHT22;50346;51.268;15.942;2022-09-09T09:44:41;20.90;99.90
6958;DHT22;50346;51.268;15.942;2022-09-09T09:49:34;20.90;99.90
6958;DHT22;50346;51.268;15.942;2022-09-09T09:52:04;20.90;99.90
6958;DHT22;50346;51.268;15.942;2022-09-09T09:57:11;21.00;99.90
6958;DHT22;50346;51.268;15.942;2022-09-09T09:59:37;21.00;99.90
6958;DHT22;50346;51.268;15.942;2022-09-09T10:04:38;21.20;99.90
6958;DHT22;50346;51.268;15.942;2022-09-09T10:07:18;21.30;99.90
6958;DHT22;50346;51.268;15.942;2022-09-09T10:09:44;21.40;99.90
6958;DHT22;50346;51.268;15.942;2022-09-09T10:22:35;21.90;99.90
6958;DHT22;50346;51.268;15.942;2022-09-09T10:28:19;22.10;99.90
6958;DHT22;50346;51.268;15.942;2022-09-09T10:33:39;22.30;99.90
6958;DHT22;50346;51.268;15.942;2022-09-09T10:36:18;22.40;99.90
6958;DHT22;50346;51.268;15.942;2022-09-09T10:39:03;22.40;99.90
6958;DHT22;50346;51.268;15.942;2022-09-09T10:55:42;23.10;39.50
6958;DHT22;50346;51.268;15.942;2022-09-09T10:58:20;23.10;47.80
6958;DHT22;50346;51.268;15.942;2022-09-09T11:00:53;23.20;43.50
6958;DHT22;50346;51.268;15.942;2022-09-09T11:03:26;23.40;44.80
6958;DHT22;50346;51.268;15.942;2022-09-09T11:06:04;23.40;40.80
6958;DHT22;50346;51.268;15.942;2022-09-09T11:08:34;23.40;35.80
6958;DHT22;50346;51.268;15.942;2022-09-09T11:11:33;23.50;31.10
6958;DHT22;50346;51.268;15.942;2022-09-09T11:14:14;23.50;27.20
6958;DHT22;50346;51.268;15.942;2022-09-09T11:19:36;23.60;23.30
6958;DHT22;50346;51.268;15.942;2022-09-09T11:25:19;23.70;27.70
6958;DHT22;50346;51.268;15.942;2022-09-09T11:28:06;23.80;18.40
6958;DHT22;50346;51.268;15.942;2022-09-09T11:36:56;24.10;13.10
6958;DHT22;50346;51.268;15.942;2022-09-09T11:42:15;24.20;5.80
6958;DHT22;50346;51.268;15.942;2022-09-09T11:44:43;24.20;4.80
6958;DHT22;50346;51.268;15.942;2022-09-09T11:47:29;24.30;2.90
6958;DHT22;50346;51.268;15.942;2022-09-09T11:50:56;24.40;1.80
6958;DHT22;50346;51.268;15.942;2022-09-09T11:53:19;24.50;1.30
6958;DHT22;50346;51.268;15.942;2022-09-09T11:55:46;24.60;1.10
6958;DHT22;50346;51.268;15.942;2022-09-09T12:03:08;25.00;1.00
6958;DHT22;50346;51.268;15.942;2022-09-09T12:05:51;25.10;1.00
6958;DHT22;50346;51.268;15.942;2022-09-09T12:29:41;26.20;1.00
6958;DHT22;50346;51.268;15.942;2022-09-09T12:34:51;26.80;99.90
6958;DHT22;50346;51.268;15.942;2022-09-09T12:40:33;27.30;99.90
6958;DHT22;50346;51.268;15.942;2022-09-09T12:43:01;27.40;1.00
6958;DHT22;50346;51.268;15.942;2022-09-09T12:45:30;27.50;1.00
6958;DHT22;50346;51.268;15.942;2022-09-09T12:48:06;27.50;1.00
6958;DHT22;50346;51.268;15.942;2022-09-09T12:50:57;27.60;1.00
6958;DHT22;50346;51.268;15.942;2022-09-09T12:56:00;27.80;1.00
6958;DHT22;50346;51.268;15.942;2022-09-09T12:58:29;27.90;1.00
6958;DHT22;50346;51.268;15.942;2022-09-09T13:00:59;28.00;1.00
6958;DHT22;50346;51.268;15.942;2022-09-09T13:03:26;28.00;1.00
6958;DHT22;50346;51.268;15.942;2022-09-09T13:05:53;28.00;1.00
6958;DHT22;50346;51.268;15.942;2022-09-09T13:08:19;27.80;1.00
6958;DHT22;50346;51.268;15.942;2022-09-09T13:10:56;27.20;1.00
6958;DHT22;50346;51.268;15.942;2022-09-09T13:15:59;25.60;53.70
6958;DHT22;50346;51.268;15.942;2022-09-09T13:21:00;24.40;1.00
6958;DHT22;50346;51.268;15.942;2022-09-09T13:26:05;23.70;1.00
6958;DHT22;50346;51.268;15.942;2022-09-09T13:28:32;23.50;1.00
6958;DHT22;50346;51.268;15.942;2022-09-09T13:31:18;23.30;1.00
6958;DHT22;50346;51.268;15.942;2022-09-09T13:33:44;23.20;1.00
6958;DHT22;50346;51.268;15.942;2022-09-09T13:36:11;23.10;1.00
6958;DHT22;50346;51.268;15.942;2022-09-09T13:38:52;23.20;1.00
6958;DHT22;50346;51.268;15.942;2022-09-09T13:41:28;23.50;1.00
6958;DHT22;50346;51.268;15.942;2022-09-09T13:43:55;23.60;1.00
6958;DHT22;50346;51.268;15.942;2022-09-09T13:46:39;23.70;1.00
6958;DHT22;50346;51.268;15.942;2022-09-09T13:54:06;23.60;1.00
6958;DHT22;50346;51.268;15.942;2022-09-09T13:56:35;23.70;1.00
6958;DHT22;50346;51.268;15.942;2022-09-09T13:59:03;23.90;1.00
6958;DHT22;50346;51.268;15.942;2022-09-09T14:01:28;23.90;1.00
6958;DHT22;50346;51.268;15.942;2022-09-09T14:03:54;24.00;1.00
6958;DHT22;50346;51.268;15.942;2022-09-09T14:06:20;24.10;1.00
6958;DHT22;50346;51.268;15.942;2022-09-09T14:08:50;24.10;1.00
6958;DHT22;50346;51.268;15.942;2022-09-09T14:11:16;24.20;1.00
6958;DHT22;50346;51.268;15.942;2022-09-09T14:13:42;24.30;1.00
6958;DHT22;50346;51.268;15.942;2022-09-09T14:16:08;24.40;1.00
6958;DHT22;50346;51.268;15.942;2022-09-09T14:18:33;24.30;1.00
6958;DHT22;50346;51.268;15.942;2022-09-09T14:20:59;24.40;1.00
6958;DHT22;50346;51.268;15.942;2022-09-09T14:23:25;24.50;1.00
6958;DHT22;50346;51.268;15.942;2022-09-09T14:25:51;24.50;1.00
6958;DHT22;50346;51.268;15.942;2022-09-09T14:28:17;24.60;1.00
6958;DHT22;50346;51.268;15.942;2022-09-09T14:30:43;24.70;1.00
6958;DHT22;50346;51.268;15.942;2022-09-09T14:33:12;24.80;1.00
6958;DHT22;50346;51.268;15.942;2022-09-09T14:35:38;25.00;1.00
6958;DHT22;50346;51.268;15.942;2022-09-09T14:38:05;25.40;1.00
6958;DHT22;50346;51.268;15.942;2022-09-09T14:40:31;26.60;1.00
6958;DHT22;50346;51.268;15.942;2022-09-09T14:42:56;27.50;1.00
6958;DHT22;50346;51.268;15.942;2022-09-09T14:45:25;28.00;1.00
6958;DHT22;50346;51.268;15.942;2022-09-09T14:47:52;27.90;1.00
6958;DHT22;50346;51.268;15.942;2022-09-09T14:52:44;27.00;1.00
6958;DHT22;50346;51.268;15.942;2022-09-09T14:55:10;26.50;1.00
6958;DHT22;50346;51.268;15.942;2022-09-09T14:57:36;26.00;1.00
6958;DHT22;50346;51.268;15.942;2022-09-09T15:02:29;25.10;1.00
6958;DHT22;50346;51.268;15.942;2022-09-09T15:04:55;24.70;1.00
6958;DHT22;50346;51.268;15.942;2022-09-09T15:07:23;24.40;1.00
6958;DHT22;50346;51.268;15.942;2022-09-09T15:09:49;24.20;1.00
6958;DHT22;50346;51.268;15.942;2022-09-09T15:12:15;24.10;1.00
6958;DHT22;50346;51.268;15.942;2022-09-09T15:14:41;24.20;1.00
6958;DHT22;50346;51.268;15.942;2022-09-09T15:17:06;24.20;1.00
6958;DHT22;50346;51.268;15.942;2022-09-09T15:19:32;24.20;1.00
6958;DHT22;50346;51.268;15.942;2022-09-09T15:21:58;24.20;1.00
6958;DHT22;50346;51.268;15.942;2022-09-09T15:24:25;24.40;1.00
6958;DHT22;50346;51.268;15.942;2022-09-09T15:26:51;24.70;1.00
6958;DHT22;50346;51.268;15.942;2022-09-09T15:29:17;24.80;1.00
6958;DHT22;50346;51.268;15.942;2022-09-09T15:31:44;24.70;1.00
6958;DHT22;50346;51.268;15.942;2022-09-09T15:34:09;24.70;1.00
6958;DHT22;50346;51.268;15.942;2022-09-09T15:36:37;24.70;1.00
6958;DHT22;50346;51.268;15.942;2022-09-09T15:39:06;24.80;5.40
6958;DHT22;50346;51.268;15.942;2022-09-09T15:41:32;24.80;1.00
6958;DHT22;50346;51.268;15.942;2022-09-09T15:43:58;24.70;1.00
6958;DHT22;50346;51.268;15.942;2022-09-09T15:46:33;24.40;1.00
6958;DHT22;50346;51.268;15.942;2022-09-09T15:49:18;24.20;1.00
6958;DHT22;50346;51.268;15.942;2022-09-09T15:51:46;23.80;1.00
6958;DHT22;50346;51.268;15.942;2022-09-09T15:54:14;23.50;1.00
6958;DHT22;50346;51.268;15.942;2022-09-09T15:56:42;23.30;3.60
6958;DHT22;50346;51.268;15.942;2022-09-09T16:01:35;22.70;11.50
6958;DHT22;50346;51.268;15.942;2022-09-09T16:04:01;22.50;35.80
6958;DHT22;50346;51.268;15.942;2022-09-09T16:06:28;22.30;91.10
6958;DHT22;50346;51.268;15.942;2022-09-09T16:08:55;22.10;99.90
6958;DHT22;50346;51.268;15.942;2022-09-09T16:11:26;21.80;99.90
6958;DHT22;50346;51.268;15.942;2022-09-09T16:13:53;21.70;99.90
6958;DHT22;50346;51.268;15.942;2022-09-09T16:16:22;21.50;99.90
6958;DHT22;50346;51.268;15.942;2022-09-09T16:18:59;21.40;99.90
6958;DHT22;50346;51.268;15.942;2022-09-09T16:23:58;21.20;1.00
6958;DHT22;50346;51.268;15.942;2022-09-09T16:26:31;21.10;1.00
6958;DHT22;50346;51.268;15.942;2022-09-09T16:28:58;21.00;1.00
6958;DHT22;50346;51.268;15.942;2022-09-09T16:31:25;21.00;99.90
6958;DHT22;50346;51.268;15.942;2022-09-09T16:33:52;20.90;99.90
6958;DHT22;50346;51.268;15.942;2022-09-09T16:36:20;20.90;99.90
6958;DHT22;50346;51.268;15.942;2022-09-09T16:38:46;20.80;99.90
6958;DHT22;50346;51.268;15.942;2022-09-09T16:41:13;20.80;1.00
6958;DHT22;50346;51.268;15.942;2022-09-09T16:43:40;20.80;1.00
6958;DHT22;50346;51.268;15.942;2022-09-09T16:46:17;20.80;99.90
6958;DHT22;50346;51.268;15.942;2022-09-09T16:48:45;20.70;99.90
6958;DHT22;50346;51.268;15.942;2022-09-09T16:51:21;20.70;1.00
6958;DHT22;50346;51.268;15.942;2022-09-09T16:53:48;20.60;99.90
6958;DHT22;50346;51.268;15.942;2022-09-09T16:56:17;20.60;99.90
6958;DHT22;50346;51.268;15.942;2022-09-09T16:58:48;20.60;1.00
6958;DHT22;50346;51.268;15.942;2022-09-09T17:03:40;20.50;99.90
6958;DHT22;50346;51.268;15.942;2022-09-09T17:06:14;20.40;99.90
6958;DHT22;50346;51.268;15.942;2022-09-09T17:08:40;20.40;1.00
6958;DHT22;50346;51.268;15.942;2022-09-09T17:11:17;20.40;1.00
6958;DHT22;50346;51.268;15.942;2022-09-09T17:13:44;20.30;1.00
6958;DHT22;50346;51.268;15.942;2022-09-09T17:16:11;20.20;1.00
6958;DHT22;50346;51.268;15.942;2022-09-09T17:21:14;20.10;99.90
6958;DHT22;50346;51.268;15.942;2022-09-09T17:23:41;20.00;1.00
6958;DHT22;50346;51.268;15.942;2022-09-09T17:26:09;19.90;99.90
6958;DHT22;50346;51.268;15.942;2022-09-09T17:28:36;19.80;99.90
6958;DHT22;50346;51.268;15.942;2022-09-09T17:31:04;19.70;1.00
6958;DHT22;50346;51.268;15.942;2022-09-09T17:33:36;19.60;99.90
6958;DHT22;50346;51.268;15.942;2022-09-09T17:36:10;19.60;99.90
6958;DHT22;50346;51.268;15.942;2022-09-09T17:38:37;19.50;3.10
6958;DHT22;50346;51.268;15.942;2022-09-09T17:41:05;19.50;1.00
6958;DHT22;50346;51.268;15.942;2022-09-09T17:50:58;19.20;1.00
6958;DHT22;50346;51.268;15.942;2022-09-09T18:30:01;18.70;1.00
6958;DHT22;50346;51.268;15.942;2022-09-09T18:32:27;18.50;1.00
6958;DHT22;50346;51.268;15.942;2022-09-09T18:34:54;18.40;1.00
6958;DHT22;50346;51.268;15.942;2022-09-09T18:37:23;18.40;1.00
6958;DHT22;50346;51.268;15.942;2022-09-09T18:39:49;18.20;1.00
6958;DHT22;50346;51.268;15.942;2022-09-09T18:42:14;18.10;15.30
6958;DHT22;50346;51.268;15.942;2022-09-09T18:44:40;18.00;33.50
6958;DHT22;50346;51.268;15.942;2022-09-09T18:47:07;17.90;51.20
6958;DHT22;50346;51.268;15.942;2022-09-09T18:51:58;17.60;73.20
6958;DHT22;50346;51.268;15.942;2022-09-09T18:54:26;17.60;79.50
6958;DHT22;50346;51.268;15.942;2022-09-09T18:56:54;17.50;83.70
6958;DHT22;50346;51.268;15.942;2022-09-09T18:59:21;17.40;90.60
6958;DHT22;50346;51.268;15.942;2022-09-09T19:01:48;17.40;93.60
6958;DHT22;50346;51.268;15.942;2022-09-09T19:04:15;17.30;96.10
6958;DHT22;50346;51.268;15.942;2022-09-09T19:06:44;17.30;97.90
6958;DHT22;50346;51.268;15.942;2022-09-09T19:09:13;17.30;98.90
6958;DHT22;50346;51.268;15.942;2022-09-09T19:11:40;17.20;99.50
6958;DHT22;50346;51.268;15.942;2022-09-09T19:14:07;17.20;99.90
6958;DHT22;50346;51.268;15.942;2022-09-09T19:16:35;17.10;99.90
6958;DHT22;50346;51.268;15.942;2022-09-09T19:19:04;17.10;99.90
6958;DHT22;50346;51.268;15.942;2022-09-09T19:21:35;17.10;99.90
6958;DHT22;50346;51.268;15.942;2022-09-09T19:24:04;17.00;99.90
6958;DHT22;50346;51.268;15.942;2022-09-09T19:26:35;17.00;99.90
6958;DHT22;50346;51.268;15.942;2022-09-09T19:29:20;17.00;99.90
6958;DHT22;50346;51.268;15.942;2022-09-09T19:31:46;17.00;99.90
6958;DHT22;50346;51.268;15.942;2022-09-09T19:34:13;17.00;99.90
6958;DHT22;50346;51.268;15.942;2022-09-09T19:36:39;17.00;99.90
6958;DHT22;50346;51.268;15.942;2022-09-09T19:39:06;17.00;99.90
6958;DHT22;50346;51.268;15.942;2022-09-09T19:41:33;17.00;99.90
6958;DHT22;50346;51.268;15.942;2022-09-09T19:44:00;17.00;99.90
6958;DHT22;50346;51.268;15.942;2022-09-09T19:46:30;17.00;99.90
6958;DHT22;50346;51.268;15.942;2022-09-09T19:48:57;17.00;99.90
6958;DHT22;50346;51.268;15.942;2022-09-09T19:51:24;17.00;99.90
6958;DHT22;50346;51.268;15.942;2022-09-09T19:53:53;17.00;99.90
6958;DHT22;50346;51.268;15.942;2022-09-09T19:56:24;17.00;99.90
6958;DHT22;50346;51.268;15.942;2022-09-09T19:58:51;17.00;99.90
6958;DHT22;50346;51.268;15.942;2022-09-09T20:01:20;17.00;99.90